createdAt,value
2017-02-22T00:00:27.127Z,1002.73
2017-02-22T00:01:07.786Z,1002.73
2017-02-22T00:01:48.371Z,1002.73
2017-02-22T00:02:28.965Z,1002.7
2017-02-22T00:03:09.576Z,1002.72
2017-02-22T00:03:50.257Z,1002.71
2017-02-22T00:04:30.929Z,1002.64
2017-02-22T00:05:11.519Z,1002.63
2017-02-22T00:05:52.150Z,1002.75
2017-02-22T00:06:32.793Z,1002.58
2017-02-22T00:07:13.435Z,1002.64
2017-02-22T00:07:54.026Z,1002.63
2017-02-22T00:08:34.662Z,1002.67
2017-02-22T00:09:15.315Z,1002.65
2017-02-22T00:09:55.950Z,1002.58
2017-02-22T00:10:36.611Z,1002.56
2017-02-22T00:11:17.251Z,1002.68
2017-02-22T00:11:57.898Z,1002.63
2017-02-22T00:12:38.495Z,1002.58
2017-02-22T00:13:19.119Z,1002.66
2017-02-22T00:13:59.726Z,1002.65
2017-02-22T00:14:40.322Z,1002.62
2017-02-22T00:15:20.926Z,1002.65
2017-02-22T00:16:01.534Z,1002.54
2017-02-22T00:16:42.193Z,1002.53
2017-02-22T00:17:22.782Z,1002.5
2017-02-22T00:18:03.413Z,1002.39
2017-02-22T00:19:41.591Z,1002.4
2017-02-22T00:20:22.205Z,1002.35
2017-02-22T00:21:02.777Z,1002.32
2017-02-22T00:21:43.397Z,1002.33
2017-02-22T00:22:24.018Z,1002.19
2017-02-22T00:23:04.691Z,1002.22
2017-02-22T00:23:45.303Z,1002.26
2017-02-22T00:24:25.929Z,1002.25
2017-02-22T00:25:06.593Z,1002.21
2017-02-22T00:25:47.166Z,1002.23
2017-02-22T00:26:27.833Z,1002.24
2017-02-22T00:27:08.450Z,1002.23
2017-02-22T00:27:49.058Z,1002.19
2017-02-22T00:28:29.631Z,1002.21
2017-02-22T00:29:10.307Z,1002.24
2017-02-22T00:29:50.962Z,1002.21
2017-02-22T00:30:31.546Z,1002.22
2017-02-22T00:31:12.126Z,1002.23
2017-02-22T00:31:52.747Z,1002.15
2017-02-22T00:32:33.303Z,1002.1
2017-02-22T00:33:13.932Z,1002.05
2017-02-22T00:33:54.589Z,1002.16
2017-02-22T00:34:35.217Z,1002.09
2017-02-22T00:35:15.882Z,1002.01
2017-02-22T00:35:56.518Z,1002
2017-02-22T00:36:37.144Z,1001.99
2017-02-22T00:37:17.787Z,1001.9
2017-02-22T00:37:58.395Z,1001.9
2017-02-22T00:38:39.030Z,1001.79
2017-02-22T00:39:19.667Z,1001.79
2017-02-22T00:40:00.275Z,1001.73
2017-02-22T00:40:40.980Z,1001.74
2017-02-22T00:41:21.620Z,1001.76
2017-02-22T00:42:02.261Z,1001.64
2017-02-22T00:42:42.850Z,1001.67
2017-02-22T00:43:23.515Z,1001.75
2017-02-22T00:44:04.123Z,1001.72
2017-02-22T00:44:44.773Z,1001.76
2017-02-22T00:45:25.375Z,1001.69
2017-02-22T00:46:05.989Z,1001.79
2017-02-22T00:46:46.737Z,1001.87
2017-02-22T00:47:27.390Z,1001.81
2017-02-22T00:48:07.986Z,1001.92
2017-02-22T00:48:48.629Z,1001.85
2017-02-22T00:49:29.283Z,1001.87
2017-02-22T00:50:09.878Z,1001.84
2017-02-22T00:50:50.509Z,1001.84
2017-02-22T00:51:31.110Z,1001.81
2017-02-22T00:52:11.791Z,1001.82
2017-02-22T00:52:52.399Z,1001.78
2017-02-22T00:53:33.040Z,1001.96
2017-02-22T00:54:13.647Z,1001.91
2017-02-22T00:54:54.288Z,1001.99
2017-02-22T00:55:34.901Z,1001.83
2017-02-22T00:56:15.528Z,1001.94
2017-02-22T00:56:56.120Z,1001.81
2017-02-22T00:57:36.735Z,1001.82
2017-02-22T00:58:17.340Z,1001.75
2017-02-22T00:58:57.929Z,1001.75
2017-02-22T00:59:38.499Z,1001.84
2017-02-22T01:00:19.086Z,1001.76
2017-02-22T01:00:59.670Z,1001.77
2017-02-22T01:01:40.299Z,1001.8
2017-02-22T01:02:20.911Z,1001.58
2017-02-22T01:03:01.498Z,1001.73
2017-02-22T01:03:42.104Z,1001.68
2017-02-22T01:04:22.703Z,1001.62
2017-02-22T01:05:03.327Z,1001.7
2017-02-22T01:05:43.976Z,1001.71
2017-02-22T01:06:24.596Z,1001.67
2017-02-22T01:07:05.210Z,1001.67
2017-02-22T01:07:45.808Z,1001.63
2017-02-22T01:08:26.506Z,1001.62
2017-02-22T01:09:07.079Z,1001.58
2017-02-22T01:09:47.661Z,1001.61
2017-02-22T01:10:28.327Z,1001.64
2017-02-22T01:11:08.926Z,1001.61
2017-02-22T01:11:49.544Z,1001.65
2017-02-22T01:12:30.212Z,1001.62
2017-02-22T01:13:10.808Z,1001.6
2017-02-22T01:13:51.457Z,1001.64
2017-02-22T01:14:32.112Z,1001.62
2017-02-22T01:15:12.696Z,1001.63
2017-02-22T01:15:53.341Z,1001.6
2017-02-22T01:16:33.967Z,1001.61
2017-02-22T01:17:14.596Z,1001.55
2017-02-22T01:17:55.204Z,1001.56
2017-02-22T01:18:36.565Z,1001.6
2017-02-22T01:19:17.220Z,1001.65
2017-02-22T01:19:57.833Z,1001.59
2017-02-22T01:20:38.485Z,1001.66
2017-02-22T01:21:19.061Z,1001.6
2017-02-22T01:21:59.672Z,1001.56
2017-02-22T01:22:40.298Z,1001.61
2017-02-22T01:23:20.903Z,1001.52
2017-02-22T01:24:01.548Z,1001.63
2017-02-22T01:24:42.240Z,1001.61
2017-02-22T01:25:22.862Z,1001.52
2017-02-22T01:26:03.477Z,1001.57
2017-02-22T01:26:44.071Z,1001.53
2017-02-22T01:27:24.670Z,1001.6
2017-02-22T01:28:05.291Z,1001.64
2017-02-22T01:28:45.940Z,1001.6
2017-02-22T01:29:26.590Z,1001.6
2017-02-22T01:30:07.220Z,1001.53
2017-02-22T01:30:47.824Z,1001.54
2017-02-22T01:31:28.441Z,1001.55
2017-02-22T01:32:09.075Z,1001.51
2017-02-22T01:32:49.681Z,1001.56
2017-02-22T01:33:30.283Z,1001.57
2017-02-22T01:34:10.898Z,1001.49
2017-02-22T01:34:51.461Z,1001.46
2017-02-22T01:35:32.062Z,1001.44
2017-02-22T01:36:12.700Z,1001.44
2017-02-22T01:36:53.293Z,1001.4
2017-02-22T01:37:33.888Z,1001.5
2017-02-22T01:38:14.476Z,1001.5
2017-02-22T01:38:55.111Z,1001.33
2017-02-22T01:39:35.777Z,1001.44
2017-02-22T01:40:16.375Z,1001.38
2017-02-22T01:40:56.960Z,1001.38
2017-02-22T01:41:37.576Z,1001.39
2017-02-22T01:42:18.187Z,1001.37
2017-02-22T01:42:58.825Z,1001.39
2017-02-22T01:43:39.443Z,1001.31
2017-02-22T01:44:20.057Z,1001.29
2017-02-22T01:45:00.679Z,1001.25
2017-02-22T01:45:41.327Z,1001.27
2017-02-22T01:46:21.942Z,1001.23
2017-02-22T01:47:02.542Z,1001.26
2017-02-22T01:47:43.172Z,1001.13
2017-02-22T01:48:23.815Z,1001.23
2017-02-22T01:49:04.527Z,1001.24
2017-02-22T01:49:45.186Z,1001.24
2017-02-22T01:50:25.751Z,1001.2
2017-02-22T01:51:06.331Z,1001.28
2017-02-22T01:51:46.992Z,1001.32
2017-02-22T01:52:27.620Z,1001.37
2017-02-22T01:53:08.195Z,1001.44
2017-02-22T01:53:48.805Z,1001.52
2017-02-22T01:54:29.412Z,1001.3
2017-02-22T01:55:09.978Z,1001.32
2017-02-22T01:55:50.574Z,1001.37
2017-02-22T01:56:31.176Z,1001.28
2017-02-22T01:57:11.798Z,1001.38
2017-02-22T01:57:52.408Z,1001.31
2017-02-22T01:58:33.008Z,1001.29
2017-02-22T01:59:13.636Z,1001.33
2017-02-22T01:59:54.237Z,1001.35
2017-02-22T02:00:34.875Z,1001.29
2017-02-22T02:01:15.490Z,1001.32
2017-02-22T02:01:56.093Z,1001.34
2017-02-22T02:02:36.646Z,1001.44
2017-02-22T02:03:17.262Z,1001.36
2017-02-22T02:03:57.881Z,1001.36
2017-02-22T02:04:38.518Z,1001.28
2017-02-22T02:05:19.154Z,1001.32
2017-02-22T02:05:59.797Z,1001.3
2017-02-22T02:06:40.413Z,1001.42
2017-02-22T02:07:21.008Z,1001.33
2017-02-22T02:08:01.609Z,1001.29
2017-02-22T02:08:42.194Z,1001.26
2017-02-22T02:09:22.796Z,1001.3
2017-02-22T02:10:03.438Z,1001.18
2017-02-22T02:10:44.030Z,1001.25
2017-02-22T02:11:24.649Z,1001.25
2017-02-22T02:12:05.256Z,1001.17
2017-02-22T02:12:45.819Z,1001.19
2017-02-22T02:13:26.435Z,1001.2
2017-02-22T02:14:07.070Z,1001.2
2017-02-22T02:14:47.649Z,1001.16
2017-02-22T02:15:28.290Z,1001.18
2017-02-22T02:16:08.945Z,1001.17
2017-02-22T02:16:49.554Z,1001.16
2017-02-22T02:17:30.173Z,1001.12
2017-02-22T02:18:10.770Z,1001.09
2017-02-22T02:18:51.383Z,1001.06
2017-02-22T02:19:31.998Z,1001.05
2017-02-22T02:20:12.657Z,1001.13
2017-02-22T02:20:53.351Z,1001.12
2017-02-22T02:21:33.991Z,1001.11
2017-02-22T02:22:14.599Z,1001.09
2017-02-22T02:22:55.202Z,1001.1
2017-02-22T02:23:35.822Z,1001.02
2017-02-22T02:24:16.456Z,1001.04
2017-02-22T02:24:57.099Z,1001.05
2017-02-22T02:25:37.705Z,1001
2017-02-22T02:26:18.298Z,1000.98
2017-02-22T02:26:58.893Z,1001.04
2017-02-22T02:27:39.467Z,1001.03
2017-02-22T02:28:20.091Z,1001.05
2017-02-22T02:29:00.695Z,1001.01
2017-02-22T02:29:41.291Z,1001.02
2017-02-22T02:30:21.899Z,1000.91
2017-02-22T02:31:02.468Z,1000.9
2017-02-22T02:31:43.100Z,1000.89
2017-02-22T02:32:23.738Z,1000.88
2017-02-22T02:33:04.343Z,1000.93
2017-02-22T02:33:44.956Z,1000.87
2017-02-22T02:34:25.574Z,1000.96
2017-02-22T02:35:06.140Z,1000.91
2017-02-22T02:35:46.737Z,1000.78
2017-02-22T02:36:27.367Z,1000.89
2017-02-22T02:37:07.941Z,1000.82
2017-02-22T02:37:48.544Z,1000.77
2017-02-22T02:38:29.148Z,1000.72
2017-02-22T02:39:09.737Z,1000.8
2017-02-22T02:39:50.345Z,1000.72
2017-02-22T02:40:30.940Z,1000.79
2017-02-22T02:41:11.562Z,1000.68
2017-02-22T02:41:52.160Z,1000.69
2017-02-22T02:42:32.782Z,1000.66
2017-02-22T02:43:13.383Z,1000.7
2017-02-22T02:43:54.015Z,1000.64
2017-02-22T02:44:34.684Z,1000.6
2017-02-22T02:45:15.291Z,1000.61
2017-02-22T02:45:55.924Z,1000.54
2017-02-22T02:46:36.516Z,1000.6
2017-02-22T02:47:17.118Z,1000.58
2017-02-22T02:47:57.698Z,1000.59
2017-02-22T02:48:38.301Z,1000.5
2017-02-22T02:49:18.923Z,1000.49
2017-02-22T02:49:59.560Z,1000.47
2017-02-22T02:50:40.178Z,1000.46
2017-02-22T02:51:20.801Z,1000.47
2017-02-22T02:52:01.415Z,1000.51
2017-02-22T02:52:42.056Z,1000.45
2017-02-22T02:53:22.633Z,1000.48
2017-02-22T02:54:03.253Z,1000.45
2017-02-22T02:54:43.844Z,1000.45
2017-02-22T02:55:24.429Z,1000.44
2017-02-22T02:56:05.023Z,1000.44
2017-02-22T02:56:45.664Z,1000.44
2017-02-22T02:57:26.307Z,1000.37
2017-02-22T02:58:06.890Z,1000.36
2017-02-22T02:58:47.502Z,1000.3
2017-02-22T02:59:28.129Z,1000.43
2017-02-22T03:00:08.738Z,1000.4
2017-02-22T03:00:49.371Z,1000.32
2017-02-22T03:01:29.965Z,1000.3
2017-02-22T03:02:10.566Z,1000.35
2017-02-22T03:02:51.157Z,1000.28
2017-02-22T03:03:31.787Z,1000.27
2017-02-22T03:04:12.403Z,1000.32
2017-02-22T03:04:53.017Z,1000.43
2017-02-22T03:05:33.685Z,1000.29
2017-02-22T03:06:14.280Z,1000.47
2017-02-22T03:06:54.885Z,1000.39
2017-02-22T03:07:35.523Z,1000.28
2017-02-22T03:08:16.137Z,1000.27
2017-02-22T03:08:56.725Z,1000.26
2017-02-22T03:09:37.395Z,1000.19
2017-02-22T03:10:17.989Z,1000.26
2017-02-22T03:10:58.650Z,1000.22
2017-02-22T03:11:39.229Z,1000.27
2017-02-22T03:12:19.867Z,1000.23
2017-02-22T03:13:15.171Z,1000.23
2017-02-22T03:13:55.732Z,1000.3
2017-02-22T03:14:36.324Z,1000.23
2017-02-22T03:15:16.964Z,1000.22
2017-02-22T03:15:57.557Z,1000.28
2017-02-22T03:16:38.136Z,1000.22
2017-02-22T03:17:18.755Z,1000.26
2017-02-22T03:17:59.387Z,1000.2
2017-02-22T03:18:39.970Z,1000.17
2017-02-22T03:19:20.579Z,1000.16
2017-02-22T03:20:01.236Z,1000.24
2017-02-22T03:20:41.848Z,1000.15
2017-02-22T03:21:22.445Z,1000.15
2017-02-22T03:22:03.065Z,1000.15
2017-02-22T03:22:43.680Z,1000.13
2017-02-22T03:23:24.275Z,1000.14
2017-02-22T03:24:04.962Z,1000.12
2017-02-22T03:24:45.535Z,1000.14
2017-02-22T03:25:26.140Z,1000.12
2017-02-22T03:26:06.768Z,1000.2
2017-02-22T03:26:47.367Z,1000.14
2017-02-22T03:27:27.976Z,1000.17
2017-02-22T03:28:08.547Z,1000.07
2017-02-22T03:28:49.265Z,1000.11
2017-02-22T03:29:29.880Z,1000.11
2017-02-22T03:30:10.473Z,1000.08
2017-02-22T03:30:51.100Z,1000.13
2017-02-22T03:31:31.700Z,1000.09
2017-02-22T03:32:12.313Z,1000.14
2017-02-22T03:32:52.957Z,1000.09
2017-02-22T03:33:33.562Z,1000.07
2017-02-22T03:34:14.162Z,1000
2017-02-22T03:34:54.766Z,1000.13
2017-02-22T03:35:35.364Z,1000.05
2017-02-22T03:36:15.997Z,1000.03
2017-02-22T03:36:56.637Z,1000.08
2017-02-22T03:37:37.274Z,1000
2017-02-22T03:38:17.875Z,1000.03
2017-02-22T03:38:58.517Z,1000.01
2017-02-22T03:39:39.146Z,1000.06
2017-02-22T03:40:19.742Z,1000.18
2017-02-22T03:41:00.363Z,1000.09
2017-02-22T03:41:40.988Z,1000
2017-02-22T03:42:21.644Z,1000.04
2017-02-22T03:43:02.208Z,1000.07
2017-02-22T03:43:42.786Z,999.99
2017-02-22T03:44:23.399Z,999.98
2017-02-22T03:45:04.030Z,1000.15
2017-02-22T03:45:44.666Z,999.97
2017-02-22T03:46:25.301Z,1000.03
2017-02-22T03:47:05.930Z,999.9
2017-02-22T03:47:46.558Z,999.95
2017-02-22T03:48:27.222Z,1000.06
2017-02-22T03:49:07.827Z,999.99
2017-02-22T03:49:48.461Z,1000.02
2017-02-22T03:50:29.064Z,1000.04
2017-02-22T03:51:09.705Z,1000.12
2017-02-22T03:51:50.328Z,1000.01
2017-02-22T03:52:30.916Z,999.92
2017-02-22T03:53:11.513Z,1000.04
2017-02-22T03:53:52.188Z,999.99
2017-02-22T03:54:32.821Z,999.96
2017-02-22T03:55:13.417Z,999.92
2017-02-22T03:55:54.005Z,999.9
2017-02-22T03:56:34.616Z,999.84
2017-02-22T03:57:15.250Z,999.81
2017-02-22T03:57:55.857Z,999.8
2017-02-22T03:58:36.509Z,999.76
2017-02-22T03:59:17.107Z,999.79
2017-02-22T03:59:57.677Z,999.65
2017-02-22T04:00:38.299Z,999.65
2017-02-22T04:01:18.913Z,999.63
2017-02-22T04:01:59.551Z,999.66
2017-02-22T04:02:40.160Z,999.69
2017-02-22T04:03:20.769Z,999.55
2017-02-22T04:04:01.367Z,999.69
2017-02-22T04:04:41.959Z,999.54
2017-02-22T04:05:22.535Z,999.77
2017-02-22T04:06:03.206Z,999.61
2017-02-22T04:06:43.814Z,999.64
2017-02-22T04:07:24.419Z,999.7
2017-02-22T04:08:04.997Z,999.67
2017-02-22T04:08:45.604Z,999.62
2017-02-22T04:09:26.238Z,999.67
2017-02-22T04:10:06.877Z,999.72
2017-02-22T04:10:47.517Z,999.69
2017-02-22T04:11:28.129Z,999.75
2017-02-22T04:12:08.711Z,999.75
2017-02-22T04:12:49.308Z,999.84
2017-02-22T04:13:29.908Z,999.77
2017-02-22T04:14:10.556Z,999.88
2017-02-22T04:14:51.163Z,999.81
2017-02-22T04:15:31.787Z,999.83
2017-02-22T04:16:12.409Z,999.86
2017-02-22T04:16:53.021Z,999.8
2017-02-22T04:17:33.650Z,999.79
2017-02-22T04:18:14.265Z,999.78
2017-02-22T04:18:54.849Z,999.79
2017-02-22T04:19:35.447Z,999.85
2017-02-22T04:20:16.047Z,999.79
2017-02-22T04:20:56.662Z,999.83
2017-02-22T04:21:37.241Z,999.67
2017-02-22T04:22:17.923Z,999.85
2017-02-22T04:22:58.533Z,999.75
2017-02-22T04:23:39.154Z,999.82
2017-02-22T04:24:19.757Z,999.68
2017-02-22T04:25:00.430Z,999.77
2017-02-22T04:25:41.033Z,999.7
2017-02-22T04:26:21.652Z,999.85
2017-02-22T04:27:02.275Z,999.86
2017-02-22T04:27:42.872Z,999.74
2017-02-22T04:28:23.437Z,999.77
2017-02-22T04:29:04.019Z,999.77
2017-02-22T04:29:44.624Z,999.73
2017-02-22T04:30:25.331Z,999.87
2017-02-22T04:31:05.997Z,999.7
2017-02-22T04:31:46.608Z,999.76
2017-02-22T04:32:27.212Z,999.72
2017-02-22T04:33:07.805Z,999.69
2017-02-22T04:33:48.419Z,999.77
2017-02-22T04:34:29.014Z,999.76
2017-02-22T04:35:09.610Z,999.64
2017-02-22T04:35:50.215Z,999.79
2017-02-22T04:36:30.797Z,999.73
2017-02-22T04:37:11.478Z,999.69
2017-02-22T04:37:52.125Z,999.68
2017-02-22T04:38:32.736Z,999.7
2017-02-22T04:39:13.336Z,999.76
2017-02-22T04:39:53.938Z,999.73
2017-02-22T04:40:34.546Z,999.78
2017-02-22T04:41:15.160Z,999.77
2017-02-22T04:41:55.739Z,999.82
2017-02-22T04:42:36.350Z,999.72
2017-02-22T04:43:16.980Z,999.62
2017-02-22T04:43:57.615Z,999.65
2017-02-22T04:44:38.243Z,999.65
2017-02-22T04:45:18.869Z,999.53
2017-02-22T04:45:59.462Z,999.68
2017-02-22T04:46:40.075Z,999.64
2017-02-22T04:47:20.683Z,999.58
2017-02-22T04:48:03.588Z,999.51
2017-02-22T04:48:44.579Z,999.54
2017-02-22T04:49:26.012Z,999.44
2017-02-22T04:50:06.598Z,999.62
2017-02-22T04:50:47.423Z,999.52
2017-02-22T04:51:28.071Z,999.56
2017-02-22T04:52:08.722Z,999.5
2017-02-22T04:52:49.289Z,999.58
2017-02-22T04:53:29.916Z,999.61
2017-02-22T04:54:10.512Z,999.58
2017-02-22T04:54:51.144Z,999.52
2017-02-22T04:55:31.726Z,999.53
2017-02-22T04:56:12.348Z,999.56
2017-02-22T04:56:52.984Z,999.64
2017-02-22T04:57:33.553Z,999.61
2017-02-22T04:58:14.205Z,999.55
2017-02-22T04:58:54.820Z,999.57
2017-02-22T04:59:35.449Z,999.43
2017-02-22T05:00:16.015Z,999.53
2017-02-22T05:00:56.577Z,999.65
2017-02-22T05:01:37.174Z,999.49
2017-02-22T05:02:17.803Z,999.58
2017-02-22T05:02:58.405Z,999.5
2017-02-22T05:03:39.018Z,999.47
2017-02-22T05:04:19.633Z,999.49
2017-02-22T05:05:00.213Z,999.47
2017-02-22T05:05:40.793Z,999.5
2017-02-22T05:06:21.365Z,999.53
2017-02-22T05:07:01.997Z,999.44
2017-02-22T05:07:42.647Z,999.4
2017-02-22T05:08:23.328Z,999.35
2017-02-22T05:09:03.903Z,999.36
2017-02-22T05:09:44.489Z,999.35
2017-02-22T05:10:25.027Z,999.38
2017-02-22T05:11:05.596Z,999.35
2017-02-22T05:11:46.228Z,999.46
2017-02-22T05:12:26.846Z,999.36
2017-02-22T05:13:07.445Z,999.39
2017-02-22T05:13:48.078Z,999.37
2017-02-22T05:14:28.673Z,999.38
2017-02-22T05:15:09.235Z,999.33
2017-02-22T05:15:49.795Z,999.38
2017-02-22T05:16:30.385Z,999.46
2017-02-22T05:17:11.024Z,999.27
2017-02-22T05:17:51.629Z,999.41
2017-02-22T05:18:32.235Z,999.28
2017-02-22T05:19:12.806Z,999.33
2017-02-22T05:19:53.371Z,999.43
2017-02-22T05:20:33.947Z,999.31
2017-02-22T05:21:14.517Z,999.36
2017-02-22T05:21:55.094Z,999.32
2017-02-22T05:22:35.682Z,999.35
2017-02-22T05:23:16.326Z,999.28
2017-02-22T05:23:56.962Z,999.31
2017-02-22T05:24:37.567Z,999.25
2017-02-22T05:25:18.134Z,999.33
2017-02-22T05:25:58.724Z,999.33
2017-02-22T05:26:39.300Z,999.29
2017-02-22T05:27:19.897Z,999.28
2017-02-22T05:28:00.496Z,999.22
2017-02-22T05:28:41.144Z,999.22
2017-02-22T05:29:21.736Z,999.3
2017-02-22T05:30:02.292Z,999.39
2017-02-22T05:30:42.846Z,999.27
2017-02-22T05:31:23.372Z,999.15
2017-02-22T05:32:03.932Z,999.12
2017-02-22T05:32:44.559Z,999.15
2017-02-22T05:33:25.224Z,999.32
2017-02-22T05:34:05.857Z,999.17
2017-02-22T05:34:46.513Z,999.13
2017-02-22T05:35:27.167Z,999.09
2017-02-22T05:36:07.763Z,999.05
2017-02-22T05:36:48.395Z,999.01
2017-02-22T05:37:28.972Z,999.16
2017-02-22T05:38:09.620Z,999.17
2017-02-22T05:38:50.240Z,999.03
2017-02-22T05:39:30.862Z,999.14
2017-02-22T05:40:11.450Z,999.11
2017-02-22T05:40:52.023Z,999.06
2017-02-22T05:41:32.574Z,999.05
2017-02-22T05:42:13.143Z,999.07
2017-02-22T05:42:53.737Z,999.13
2017-02-22T05:43:34.346Z,998.96
2017-02-22T05:44:14.969Z,999.09
2017-02-22T05:44:55.592Z,999.02
2017-02-22T05:45:36.169Z,999.05
2017-02-22T05:46:16.775Z,999.06
2017-02-22T05:46:57.331Z,999.08
2017-02-22T05:47:37.906Z,999.12
2017-02-22T05:48:18.516Z,999.09
2017-02-22T05:48:59.201Z,998.99
2017-02-22T05:49:39.867Z,999.1
2017-02-22T05:50:20.476Z,999.03
2017-02-22T05:51:01.071Z,999.03
2017-02-22T05:51:41.633Z,999.03
2017-02-22T05:52:22.252Z,999.03
2017-02-22T05:53:02.850Z,999.05
2017-02-22T05:53:43.500Z,999
2017-02-22T05:54:24.140Z,999.01
2017-02-22T05:55:04.737Z,999.05
2017-02-22T05:55:45.304Z,999.08
2017-02-22T05:56:25.872Z,998.97
2017-02-22T05:57:06.432Z,999.07
2017-02-22T05:57:47.009Z,999.05
2017-02-22T05:58:27.623Z,999.06
2017-02-22T05:59:08.277Z,999.05
2017-02-22T05:59:48.913Z,999.09
2017-02-22T06:00:29.495Z,999.06
2017-02-22T06:01:10.124Z,999.06
2017-02-22T06:01:50.718Z,999.04
2017-02-22T06:02:31.328Z,999
2017-02-22T06:03:12.181Z,999.03
2017-02-22T06:03:52.842Z,999.01
2017-02-22T06:04:33.459Z,999.07
2017-02-22T06:05:14.113Z,999.03
2017-02-22T06:05:54.768Z,999.04
2017-02-22T06:06:35.343Z,999
2017-02-22T06:07:15.937Z,999.02
2017-02-22T06:07:56.619Z,998.96
2017-02-22T06:08:37.207Z,999.13
2017-02-22T06:09:17.880Z,999.05
2017-02-22T06:09:58.532Z,999.08
2017-02-22T06:10:39.104Z,999.04
2017-02-22T06:11:19.803Z,999.07
2017-02-22T06:12:00.424Z,999.04
2017-02-22T06:12:41.163Z,999.09
2017-02-22T06:13:21.748Z,999.03
2017-02-22T06:14:02.366Z,998.95
2017-02-22T06:14:42.952Z,999.01
2017-02-22T06:15:23.531Z,999.03
2017-02-22T06:16:04.102Z,998.96
2017-02-22T06:16:44.693Z,998.95
2017-02-22T06:17:25.262Z,999.02
2017-02-22T06:18:05.914Z,998.99
2017-02-22T06:18:46.554Z,998.99
2017-02-22T06:19:27.114Z,998.92
2017-02-22T06:20:07.764Z,998.96
2017-02-22T06:20:48.343Z,998.94
2017-02-22T06:21:28.917Z,998.94
2017-02-22T06:22:09.535Z,998.95
2017-02-22T06:22:50.131Z,998.97
2017-02-22T06:23:30.760Z,999.01
2017-02-22T06:25:28.926Z,999
2017-02-22T06:26:09.546Z,998.96
2017-02-22T06:26:50.166Z,998.91
2017-02-22T06:27:30.719Z,998.9
2017-02-22T06:28:11.330Z,998.92
2017-02-22T06:28:52.008Z,998.95
2017-02-22T06:29:32.609Z,998.95
2017-02-22T06:30:13.220Z,998.96
2017-02-22T06:30:53.829Z,998.97
2017-02-22T06:31:34.384Z,998.94
2017-02-22T06:32:14.941Z,998.96
2017-02-22T06:32:56.108Z,998.87
2017-02-22T06:33:36.721Z,998.89
2017-02-22T06:34:17.310Z,998.9
2017-02-22T06:34:57.896Z,998.97
2017-02-22T06:36:56.118Z,998.94
2017-02-22T06:37:36.751Z,998.99
2017-02-22T06:38:17.373Z,998.89
2017-02-22T06:38:58.053Z,998.91
2017-02-22T06:39:38.700Z,998.9
2017-02-22T06:40:19.318Z,998.94
2017-02-22T06:40:59.934Z,998.83
2017-02-22T06:41:40.556Z,998.86
2017-02-22T06:42:21.172Z,998.9
2017-02-22T06:43:01.825Z,998.85
2017-02-22T06:43:42.375Z,998.86
2017-02-22T06:44:22.997Z,998.89
2017-02-22T06:45:03.606Z,998.83
2017-02-22T06:45:44.188Z,998.89
2017-02-22T06:46:24.774Z,998.92
2017-02-22T06:47:05.343Z,998.85
2017-02-22T06:47:45.893Z,999.04
2017-02-22T06:48:26.457Z,998.87
2017-02-22T06:49:07.074Z,998.9
2017-02-22T06:49:47.678Z,998.94
2017-02-22T06:50:28.281Z,998.77
2017-02-22T06:51:08.903Z,998.88
2017-02-22T06:51:49.556Z,998.93
2017-02-22T06:52:30.159Z,998.92
2017-02-22T06:53:10.753Z,998.9
2017-02-22T06:53:51.345Z,998.88
2017-02-22T06:54:31.917Z,998.88
2017-02-22T06:55:12.530Z,998.9
2017-02-22T06:55:53.148Z,998.84
2017-02-22T06:56:33.761Z,998.94
2017-02-22T06:57:14.400Z,998.88
2017-02-22T06:57:54.956Z,998.87
2017-02-22T06:58:35.609Z,998.91
2017-02-22T06:59:16.262Z,998.94
2017-02-22T06:59:56.874Z,998.86
2017-02-22T07:00:37.570Z,998.92
2017-02-22T07:01:18.135Z,998.84
2017-02-22T07:01:58.689Z,998.84
2017-02-22T07:02:39.249Z,998.84
2017-02-22T07:03:19.816Z,998.81
2017-02-22T07:04:00.379Z,998.82
2017-02-22T07:04:40.953Z,998.88
2017-02-22T07:05:21.604Z,998.96
2017-02-22T07:06:02.279Z,998.94
2017-02-22T07:06:42.882Z,998.83
2017-02-22T07:07:23.474Z,998.79
2017-02-22T07:08:04.042Z,998.81
2017-02-22T07:08:44.591Z,998.87
2017-02-22T07:09:25.179Z,998.81
2017-02-22T07:10:05.779Z,998.8
2017-02-22T07:10:46.367Z,998.74
2017-02-22T07:11:27.008Z,998.76
2017-02-22T07:12:07.651Z,998.8
2017-02-22T07:12:48.283Z,998.87
2017-02-22T07:13:28.860Z,998.77
2017-02-22T07:14:09.409Z,998.72
2017-02-22T07:14:50.080Z,998.73
2017-02-22T07:15:30.681Z,998.83
2017-02-22T07:16:11.315Z,998.79
2017-02-22T07:16:51.976Z,998.84
2017-02-22T07:17:32.581Z,998.74
2017-02-22T07:18:13.154Z,998.81
2017-02-22T07:18:53.783Z,998.7
2017-02-22T07:19:34.371Z,998.71
2017-02-22T07:20:15.014Z,998.74
2017-02-22T07:20:55.645Z,998.7
2017-02-22T07:21:36.291Z,998.66
2017-02-22T07:22:16.992Z,998.7
2017-02-22T07:22:57.629Z,998.72
2017-02-22T07:23:38.309Z,998.69
2017-02-22T07:24:19.001Z,998.65
2017-02-22T07:24:59.648Z,998.62
2017-02-22T07:25:40.381Z,998.66
2017-02-22T07:26:21.034Z,998.73
2017-02-22T07:27:01.720Z,998.71
2017-02-22T07:27:42.418Z,998.68
2017-02-22T07:28:23.111Z,998.66
2017-02-22T07:29:03.871Z,998.67
2017-02-22T07:29:44.709Z,998.77
2017-02-22T07:30:25.419Z,998.8
2017-02-22T07:31:06.146Z,998.74
2017-02-22T07:31:46.793Z,998.75
2017-02-22T07:32:27.591Z,998.7
2017-02-22T07:33:08.342Z,998.8
2017-02-22T07:33:48.983Z,998.72
2017-02-22T07:34:29.590Z,998.86
2017-02-22T07:35:10.445Z,998.75
2017-02-22T07:35:51.180Z,998.74
2017-02-22T07:36:31.813Z,998.74
2017-02-22T07:37:12.448Z,998.81
2017-02-22T07:37:53.067Z,998.77
2017-02-22T07:38:33.690Z,998.82
2017-02-22T07:39:14.277Z,998.79
2017-02-22T07:39:54.881Z,998.75
2017-02-22T07:40:35.543Z,998.83
2017-02-22T07:41:16.199Z,998.89
2017-02-22T07:41:56.792Z,998.77
2017-02-22T07:42:37.379Z,998.74
2017-02-22T07:43:17.991Z,998.84
2017-02-22T07:43:58.738Z,998.82
2017-02-22T07:44:39.338Z,998.74
2017-02-22T07:45:19.959Z,998.86
2017-02-22T07:46:00.584Z,998.81
2017-02-22T07:46:41.205Z,998.75
2017-02-22T07:47:21.825Z,998.84
2017-02-22T07:48:02.441Z,998.77
2017-02-22T07:48:43.043Z,998.86
2017-02-22T07:49:23.621Z,998.87
2017-02-22T07:50:04.242Z,998.73
2017-02-22T07:50:44.926Z,998.74
2017-02-22T07:51:25.583Z,998.78
2017-02-22T07:52:06.211Z,998.72
2017-02-22T07:52:46.913Z,998.77
2017-02-22T07:53:27.536Z,998.79
2017-02-22T07:54:08.088Z,998.75
2017-02-22T07:54:48.703Z,998.76
2017-02-22T07:55:29.315Z,998.71
2017-02-22T07:56:09.934Z,998.67
2017-02-22T07:56:50.581Z,998.83
2017-02-22T07:57:31.238Z,998.9
2017-02-22T07:58:11.950Z,998.77
2017-02-22T07:58:52.583Z,998.73
2017-02-22T07:59:33.161Z,998.69
2017-02-22T08:00:13.843Z,998.74
2017-02-22T08:00:54.515Z,998.69
2017-02-22T08:01:35.156Z,998.69
2017-02-22T08:02:15.808Z,998.69
2017-02-22T08:02:56.443Z,998.66
2017-02-22T08:03:37.082Z,998.67
2017-02-22T08:04:17.686Z,998.59
2017-02-22T08:04:58.337Z,998.6
2017-02-22T08:05:38.943Z,998.66
2017-02-22T08:06:19.632Z,998.68
2017-02-22T08:07:00.274Z,998.69
2017-02-22T08:07:40.949Z,998.7
2017-02-22T08:08:21.575Z,998.77
2017-02-22T08:09:02.204Z,998.62
2017-02-22T08:09:42.799Z,998.71
2017-02-22T08:10:23.398Z,998.71
2017-02-22T08:11:04.000Z,998.67
2017-02-22T08:11:44.743Z,998.69
2017-02-22T08:12:25.376Z,998.64
2017-02-22T08:13:05.996Z,998.69
2017-02-22T08:13:46.656Z,998.66
2017-02-22T08:14:27.298Z,998.69
2017-02-22T08:15:07.949Z,998.63
2017-02-22T08:15:48.600Z,998.69
2017-02-22T08:16:29.207Z,998.59
2017-02-22T08:17:09.858Z,998.68
2017-02-22T08:17:50.459Z,998.72
2017-02-22T08:18:31.105Z,998.82
2017-02-22T08:19:11.732Z,998.76
2017-02-22T08:19:52.379Z,998.58
2017-02-22T08:20:33.134Z,998.69
2017-02-22T08:21:13.760Z,998.73
2017-02-22T08:21:54.425Z,998.72
2017-02-22T08:22:35.023Z,998.62
2017-02-22T08:23:15.718Z,998.67
2017-02-22T08:23:56.305Z,998.69
2017-02-22T08:24:36.892Z,998.72
2017-02-22T08:25:17.477Z,998.72
2017-02-22T08:25:58.135Z,998.71